sensor_id;sensor_type;location;lat;lon;timestamp;P1;durP1;ratioP1;P2;durP2;ratioP2
3601;SDS011;1815;50.950;6.920;2023-08-30T00:00:18;12.33;;;10.57;;
3601;SDS011;1815;50.950;6.920;2023-08-30T00:02:46;11.83;;;10.70;;
3601;SDS011;1815;50.950;6.920;2023-08-30T00:05:13;10.60;;;9.60;;
3601;SDS011;1815;50.950;6.920;2023-08-30T00:07:39;11.10;;;9.90;;
3601;SDS011;1815;50.950;6.920;2023-08-30T00:10:05;10.37;;;9.37;;
3601;SDS011;1815;50.950;6.920;2023-08-30T00:12:32;9.70;;;8.80;;
3601;SDS011;1815;50.950;6.920;2023-08-30T00:14:58;8.90;;;8.10;;
3601;SDS011;1815;50.950;6.920;2023-08-30T00:17:24;8.97;;;8.07;;
3601;SDS011;1815;50.950;6.920;2023-08-30T00:19:50;10.80;;;9.27;;
3601;SDS011;1815;50.950;6.920;2023-08-30T00:22:17;8.90;;;8.00;;
3601;SDS011;1815;50.950;6.920;2023-08-30T00:24:44;10.83;;;9.97;;
3601;SDS011;1815;50.950;6.920;2023-08-30T00:27:10;9.53;;;8.60;;
3601;SDS011;1815;50.950;6.920;2023-08-30T00:29:37;10.40;;;8.17;;
3601;SDS011;1815;50.950;6.920;2023-08-30T00:32:03;9.00;;;8.10;;
3601;SDS011;1815;50.950;6.920;2023-08-30T00:34:29;12.10;;;8.67;;
3601;SDS011;1815;50.950;6.920;2023-08-30T00:36:54;9.13;;;8.23;;
3601;SDS011;1815;50.950;6.920;2023-08-30T00:39:20;8.10;;;7.40;;
3601;SDS011;1815;50.950;6.920;2023-08-30T00:41:46;10.13;;;8.57;;
3601;SDS011;1815;50.950;6.920;2023-08-30T00:44:12;7.43;;;6.80;;
3601;SDS011;1815;50.950;6.920;2023-08-30T00:46:38;8.33;;;7.53;;
3601;SDS011;1815;50.950;6.920;2023-08-30T00:49:04;8.50;;;7.57;;
3601;SDS011;1815;50.950;6.920;2023-08-30T00:51:31;8.63;;;7.83;;
3601;SDS011;1815;50.950;6.920;2023-08-30T00:53:58;8.10;;;7.10;;
3601;SDS011;1815;50.950;6.920;2023-08-30T00:56:25;7.97;;;7.20;;
3601;SDS011;1815;50.950;6.920;2023-08-30T00:58:53;7.13;;;6.53;;
3601;SDS011;1815;50.950;6.920;2023-08-30T01:01:19;7.20;;;6.60;;
3601;SDS011;1815;50.950;6.920;2023-08-30T01:03:45;6.93;;;6.23;;
3601;SDS011;1815;50.950;6.920;2023-08-30T01:06:12;7.67;;;6.97;;
3601;SDS011;1815;50.950;6.920;2023-08-30T01:08:38;7.83;;;6.50;;
3601;SDS011;1815;50.950;6.920;2023-08-30T01:11:28;9.30;;;6.00;;
3601;SDS011;1815;50.950;6.920;2023-08-30T01:14:04;5.30;;;4.80;;
3601;SDS011;1815;50.950;6.920;2023-08-30T01:16:37;9.70;;;5.90;;
3601;SDS011;1815;50.950;6.920;2023-08-30T01:19:14;5.53;;;5.03;;
3601;SDS011;1815;50.950;6.920;2023-08-30T01:21:58;6.90;;;6.20;;
3601;SDS011;1815;50.950;6.920;2023-08-30T01:24:37;6.70;;;5.30;;
3601;SDS011;1815;50.950;6.920;2023-08-30T01:27:11;4.67;;;4.10;;
3601;SDS011;1815;50.950;6.920;2023-08-30T01:29:39;6.63;;;5.93;;
3601;SDS011;1815;50.950;6.920;2023-08-30T01:32:08;6.80;;;5.87;;
3601;SDS011;1815;50.950;6.920;2023-08-30T01:34:38;6.40;;;5.30;;
3601;SDS011;1815;50.950;6.920;2023-08-30T01:37:08;6.90;;;5.30;;
3601;SDS011;1815;50.950;6.920;2023-08-30T01:39:37;6.07;;;5.30;;
3601;SDS011;1815;50.950;6.920;2023-08-30T01:42:06;6.47;;;5.87;;
3601;SDS011;1815;50.950;6.920;2023-08-30T01:44:33;6.50;;;5.00;;
3601;SDS011;1815;50.950;6.920;2023-08-30T01:47:00;5.27;;;4.77;;
3601;SDS011;1815;50.950;6.920;2023-08-30T01:49:26;6.13;;;5.27;;
3601;SDS011;1815;50.950;6.920;2023-08-30T01:51:57;6.23;;;4.83;;
3601;SDS011;1815;50.950;6.920;2023-08-30T01:54:23;5.40;;;4.90;;
3601;SDS011;1815;50.950;6.920;2023-08-30T01:56:50;5.97;;;5.47;;
3601;SDS011;1815;50.950;6.920;2023-08-30T01:59:16;6.43;;;5.03;;
3601;SDS011;1815;50.950;6.920;2023-08-30T02:01:42;9.07;;;5.43;;
3601;SDS011;1815;50.950;6.920;2023-08-30T02:04:07;4.87;;;4.37;;
3601;SDS011;1815;50.950;6.920;2023-08-30T02:06:42;4.60;;;4.03;;
3601;SDS011;1815;50.950;6.920;2023-08-30T02:09:37;6.17;;;4.80;;
3601;SDS011;1815;50.950;6.920;2023-08-30T02:12:08;5.27;;;4.77;;
3601;SDS011;1815;50.950;6.920;2023-08-30T02:14:37;6.00;;;5.40;;
3601;SDS011;1815;50.950;6.920;2023-08-30T02:17:04;6.00;;;5.40;;
3601;SDS011;1815;50.950;6.920;2023-08-30T02:19:31;8.37;;;6.37;;
3601;SDS011;1815;50.950;6.920;2023-08-30T02:21:58;6.87;;;6.20;;
3601;SDS011;1815;50.950;6.920;2023-08-30T02:24:24;6.57;;;5.07;;
3601;SDS011;1815;50.950;6.920;2023-08-30T02:26:50;6.40;;;5.80;;
3601;SDS011;1815;50.950;6.920;2023-08-30T02:29:16;5.97;;;4.93;;
3601;SDS011;1815;50.950;6.920;2023-08-30T02:31:41;6.70;;;5.50;;
3601;SDS011;1815;50.950;6.920;2023-08-30T02:34:07;6.50;;;5.90;;
3601;SDS011;1815;50.950;6.920;2023-08-30T02:36:33;5.93;;;5.20;;
3601;SDS011;1815;50.950;6.920;2023-08-30T02:38:59;6.10;;;5.50;;
3601;SDS011;1815;50.950;6.920;2023-08-30T02:41:24;5.73;;;5.20;;
3601;SDS011;1815;50.950;6.920;2023-08-30T02:43:50;6.10;;;5.50;;
3601;SDS011;1815;50.950;6.920;2023-08-30T02:46:17;6.50;;;5.90;;
3601;SDS011;1815;50.950;6.920;2023-08-30T02:48:44;7.10;;;6.00;;
3601;SDS011;1815;50.950;6.920;2023-08-30T02:51:09;6.80;;;5.90;;
3601;SDS011;1815;50.950;6.920;2023-08-30T02:53:35;6.37;;;5.80;;
3601;SDS011;1815;50.950;6.920;2023-08-30T02:56:01;6.23;;;5.70;;
3601;SDS011;1815;50.950;6.920;2023-08-30T02:58:27;6.30;;;5.70;;
3601;SDS011;1815;50.950;6.920;2023-08-30T03:00:57;6.43;;;5.80;;
3601;SDS011;1815;50.950;6.920;2023-08-30T03:03:23;7.33;;;6.00;;
3601;SDS011;1815;50.950;6.920;2023-08-30T03:05:49;7.60;;;6.27;;
3601;SDS011;1815;50.950;6.920;2023-08-30T03:08:14;6.50;;;5.90;;
3601;SDS011;1815;50.950;6.920;2023-08-30T03:10:40;6.70;;;5.97;;
3601;SDS011;1815;50.950;6.920;2023-08-30T03:13:06;8.03;;;5.50;;
3601;SDS011;1815;50.950;6.920;2023-08-30T03:15:32;6.47;;;5.87;;
3601;SDS011;1815;50.950;6.920;2023-08-30T03:17:59;6.63;;;6.07;;
3601;SDS011;1815;50.950;6.920;2023-08-30T03:20:26;8.30;;;5.60;;
3601;SDS011;1815;50.950;6.920;2023-08-30T03:22:55;6.33;;;5.40;;
3601;SDS011;1815;50.950;6.920;2023-08-30T03:25:23;7.13;;;6.40;;
3601;SDS011;1815;50.950;6.920;2023-08-30T03:27:49;7.77;;;6.00;;
3601;SDS011;1815;50.950;6.920;2023-08-30T03:30:15;6.10;;;5.37;;
3601;SDS011;1815;50.950;6.920;2023-08-30T03:32:41;7.70;;;5.33;;
3601;SDS011;1815;50.950;6.920;2023-08-30T03:35:07;6.53;;;5.50;;
3601;SDS011;1815;50.950;6.920;2023-08-30T03:37:33;6.03;;;5.47;;
3601;SDS011;1815;50.950;6.920;2023-08-30T03:40:00;9.03;;;6.60;;
3601;SDS011;1815;50.950;6.920;2023-08-30T03:42:26;7.30;;;5.40;;
3601;SDS011;1815;50.950;6.920;2023-08-30T03:44:52;6.50;;;5.70;;
3601;SDS011;1815;50.950;6.920;2023-08-30T03:47:17;5.53;;;5.03;;
3601;SDS011;1815;50.950;6.920;2023-08-30T03:49:43;7.10;;;6.27;;
3601;SDS011;1815;50.950;6.920;2023-08-30T03:52:09;7.17;;;6.27;;
3601;SDS011;1815;50.950;6.920;2023-08-30T03:54:35;6.97;;;6.03;;
3601;SDS011;1815;50.950;6.920;2023-08-30T03:57:01;6.00;;;5.40;;
3601;SDS011;1815;50.950;6.920;2023-08-30T03:59:27;7.33;;;5.70;;
3601;SDS011;1815;50.950;6.920;2023-08-30T04:01:53;6.63;;;5.97;;
3601;SDS011;1815;50.950;6.920;2023-08-30T04:04:20;7.17;;;6.13;;
3601;SDS011;1815;50.950;6.920;2023-08-30T04:06:48;7.37;;;5.80;;
3601;SDS011;1815;50.950;6.920;2023-08-30T04:09:15;7.67;;;6.77;;
3601;SDS011;1815;50.950;6.920;2023-08-30T04:11:41;7.73;;;6.00;;
3601;SDS011;1815;50.950;6.920;2023-08-30T04:14:07;6.53;;;5.87;;
3601;SDS011;1815;50.950;6.920;2023-08-30T04:16:34;7.60;;;6.30;;
3601;SDS011;1815;50.950;6.920;2023-08-30T04:18:59;6.70;;;6.03;;
3601;SDS011;1815;50.950;6.920;2023-08-30T04:21:26;7.43;;;6.83;;
3601;SDS011;1815;50.950;6.920;2023-08-30T04:23:52;7.50;;;6.83;;
3601;SDS011;1815;50.950;6.920;2023-08-30T04:26:17;9.47;;;6.40;;
3601;SDS011;1815;50.950;6.920;2023-08-30T04:28:44;8.57;;;7.87;;
3601;SDS011;1815;50.950;6.920;2023-08-30T04:31:10;7.17;;;5.73;;
3601;SDS011;1815;50.950;6.920;2023-08-30T04:33:36;7.53;;;6.10;;
3601;SDS011;1815;50.950;6.920;2023-08-30T04:36:02;10.00;;;6.27;;
3601;SDS011;1815;50.950;6.920;2023-08-30T04:38:29;7.50;;;6.20;;
3601;SDS011;1815;50.950;6.920;2023-08-30T04:40:56;6.20;;;5.60;;
3601;SDS011;1815;50.950;6.920;2023-08-30T04:43:29;7.10;;;6.40;;
3601;SDS011;1815;50.950;6.920;2023-08-30T04:45:55;8.20;;;7.40;;
3601;SDS011;1815;50.950;6.920;2023-08-30T04:48:22;8.00;;;6.70;;
3601;SDS011;1815;50.950;6.920;2023-08-30T04:50:57;5.33;;;4.83;;
3601;SDS011;1815;50.950;6.920;2023-08-30T04:53:28;8.70;;;6.27;;
3601;SDS011;1815;50.950;6.920;2023-08-30T04:55:54;6.77;;;6.10;;
3601;SDS011;1815;50.950;6.920;2023-08-30T04:58:20;6.87;;;6.17;;
3601;SDS011;1815;50.950;6.920;2023-08-30T05:00:46;6.93;;;6.00;;
3601;SDS011;1815;50.950;6.920;2023-08-30T05:03:12;7.77;;;6.40;;
3601;SDS011;1815;50.950;6.920;2023-08-30T05:05:38;6.33;;;5.67;;
3601;SDS011;1815;50.950;6.920;2023-08-30T05:08:04;6.10;;;5.60;;
3601;SDS011;1815;50.950;6.920;2023-08-30T05:10:31;6.97;;;6.27;;
3601;SDS011;1815;50.950;6.920;2023-08-30T05:12:57;6.07;;;5.30;;
3601;SDS011;1815;50.950;6.920;2023-08-30T05:15:23;7.13;;;6.53;;
3601;SDS011;1815;50.950;6.920;2023-08-30T05:17:49;6.27;;;5.60;;
3601;SDS011;1815;50.950;6.920;2023-08-30T05:20:15;6.70;;;6.10;;
3601;SDS011;1815;50.950;6.920;2023-08-30T05:22:41;7.20;;;6.50;;
3601;SDS011;1815;50.950;6.920;2023-08-30T05:25:06;6.70;;;5.83;;
3601;SDS011;1815;50.950;6.920;2023-08-30T05:27:32;4.90;;;4.37;;
3601;SDS011;1815;50.950;6.920;2023-08-30T05:29:59;6.07;;;5.47;;
3601;SDS011;1815;50.950;6.920;2023-08-30T05:32:25;5.93;;;4.80;;
3601;SDS011;1815;50.950;6.920;2023-08-30T05:35:29;5.77;;;5.27;;
3601;SDS011;1815;50.950;6.920;2023-08-30T05:38:13;6.03;;;5.33;;
3601;SDS011;1815;50.950;6.920;2023-08-30T05:40:58;6.10;;;5.03;;
3601;SDS011;1815;50.950;6.920;2023-08-30T05:43:24;5.83;;;4.80;;
3601;SDS011;1815;50.950;6.920;2023-08-30T05:45:49;5.13;;;4.63;;
3601;SDS011;1815;50.950;6.920;2023-08-30T05:48:15;6.97;;;6.33;;
3601;SDS011;1815;50.950;6.920;2023-08-30T05:50:41;6.00;;;4.97;;
3601;SDS011;1815;50.950;6.920;2023-08-30T05:53:07;8.77;;;6.57;;
3601;SDS011;1815;50.950;6.920;2023-08-30T05:55:32;5.93;;;5.33;;
3601;SDS011;1815;50.950;6.920;2023-08-30T05:57:59;7.40;;;6.63;;
3601;SDS011;1815;50.950;6.920;2023-08-30T06:00:24;6.10;;;5.50;;
3601;SDS011;1815;50.950;6.920;2023-08-30T06:02:51;6.70;;;6.13;;
3601;SDS011;1815;50.950;6.920;2023-08-30T06:05:17;5.80;;;5.20;;
3601;SDS011;1815;50.950;6.920;2023-08-30T06:07:43;6.10;;;5.60;;
3601;SDS011;1815;50.950;6.920;2023-08-30T06:10:19;6.60;;;5.93;;
3601;SDS011;1815;50.950;6.920;2023-08-30T06:12:44;7.70;;;5.50;;
3601;SDS011;1815;50.950;6.920;2023-08-30T06:15:10;6.30;;;5.70;;
3601;SDS011;1815;50.950;6.920;2023-08-30T06:17:36;6.50;;;5.90;;
3601;SDS011;1815;50.950;6.920;2023-08-30T06:20:02;7.27;;;6.50;;
3601;SDS011;1815;50.950;6.920;2023-08-30T06:22:28;7.10;;;6.40;;
3601;SDS011;1815;50.950;6.920;2023-08-30T06:24:53;6.57;;;5.97;;
3601;SDS011;1815;50.950;6.920;2023-08-30T06:27:19;8.43;;;4.73;;
3601;SDS011;1815;50.950;6.920;2023-08-30T06:29:45;10.57;;;7.13;;
3601;SDS011;1815;50.950;6.920;2023-08-30T06:32:11;7.57;;;6.77;;
3601;SDS011;1815;50.950;6.920;2023-08-30T06:34:36;6.23;;;5.63;;
3601;SDS011;1815;50.950;6.920;2023-08-30T06:37:02;8.27;;;5.43;;
3601;SDS011;1815;50.950;6.920;2023-08-30T06:39:34;6.23;;;5.73;;
3601;SDS011;1815;50.950;6.920;2023-08-30T06:42:02;6.93;;;6.20;;
3601;SDS011;1815;50.950;6.920;2023-08-30T06:44:28;5.97;;;5.47;;
3601;SDS011;1815;50.950;6.920;2023-08-30T06:46:55;6.10;;;5.50;;
3601;SDS011;1815;50.950;6.920;2023-08-30T06:49:22;6.10;;;4.77;;
3601;SDS011;1815;50.950;6.920;2023-08-30T06:51:48;7.07;;;4.30;;
3601;SDS011;1815;50.950;6.920;2023-08-30T06:54:13;4.77;;;3.70;;
3601;SDS011;1815;50.950;6.920;2023-08-30T06:56:39;4.40;;;3.50;;
3601;SDS011;1815;50.950;6.920;2023-08-30T06:59:05;4.80;;;3.27;;
3601;SDS011;1815;50.950;6.920;2023-08-30T08:47:09;3.10;;;1.40;;
3601;SDS011;1815;50.950;6.920;2023-08-30T08:49:35;2.30;;;1.10;;
3601;SDS011;1815;50.950;6.920;2023-08-30T08:52:00;2.83;;;1.40;;
3601;SDS011;1815;50.950;6.920;2023-08-30T08:54:26;1.90;;;1.30;;
3601;SDS011;1815;50.950;6.920;2023-08-30T08:57:11;2.90;;;1.10;;
3601;SDS011;1815;50.950;6.920;2023-08-30T08:59:37;2.33;;;1.10;;
3601;SDS011;1815;50.950;6.920;2023-08-30T09:02:03;2.80;;;1.20;;
3601;SDS011;1815;50.950;6.920;2023-08-30T09:04:32;2.37;;;0.90;;
3601;SDS011;1815;50.950;6.920;2023-08-30T09:06:58;2.53;;;1.30;;
3601;SDS011;1815;50.950;6.920;2023-08-30T09:09:26;2.00;;;1.10;;
3601;SDS011;1815;50.950;6.920;2023-08-30T09:11:51;2.63;;;1.17;;
3601;SDS011;1815;50.950;6.920;2023-08-30T09:14:19;2.20;;;1.20;;
3601;SDS011;1815;50.950;6.920;2023-08-30T09:16:55;2.03;;;1.10;;
3601;SDS011;1815;50.950;6.920;2023-08-30T09:19:21;2.60;;;1.20;;
3601;SDS011;1815;50.950;6.920;2023-08-30T09:21:53;2.20;;;1.00;;
3601;SDS011;1815;50.950;6.920;2023-08-30T09:24:20;3.10;;;1.20;;
3601;SDS011;1815;50.950;6.920;2023-08-30T09:26:47;2.90;;;1.20;;
3601;SDS011;1815;50.950;6.920;2023-08-30T09:29:18;2.97;;;1.13;;
3601;SDS011;1815;50.950;6.920;2023-08-30T09:31:45;2.33;;;1.17;;
3601;SDS011;1815;50.950;6.920;2023-08-30T09:34:11;3.07;;;1.20;;
3601;SDS011;1815;50.950;6.920;2023-08-30T09:36:37;3.17;;;1.53;;
3601;SDS011;1815;50.950;6.920;2023-08-30T09:39:08;2.30;;;1.67;;
3601;SDS011;1815;50.950;6.920;2023-08-30T09:41:47;2.83;;;1.20;;
3601;SDS011;1815;50.950;6.920;2023-08-30T09:44:15;3.10;;;1.10;;
3601;SDS011;1815;50.950;6.920;2023-08-30T09:46:52;4.50;;;1.60;;
3601;SDS011;1815;50.950;6.920;2023-08-30T09:49:20;2.30;;;1.33;;
3601;SDS011;1815;50.950;6.920;2023-08-30T09:51:50;3.03;;;1.40;;
3601;SDS011;1815;50.950;6.920;2023-08-30T09:54:25;2.10;;;1.03;;
3601;SDS011;1815;50.950;6.920;2023-08-30T09:56:53;2.67;;;1.30;;
3601;SDS011;1815;50.950;6.920;2023-08-30T09:59:22;2.50;;;1.33;;
3601;SDS011;1815;50.950;6.920;2023-08-30T10:01:48;3.37;;;1.10;;
3601;SDS011;1815;50.950;6.920;2023-08-30T10:04:17;2.10;;;1.00;;
3601;SDS011;1815;50.950;6.920;2023-08-30T10:06:44;1.87;;;1.10;;
3601;SDS011;1815;50.950;6.920;2023-08-30T10:09:11;2.83;;;1.20;;
3601;SDS011;1815;50.950;6.920;2023-08-30T10:11:47;2.90;;;1.47;;
3601;SDS011;1815;50.950;6.920;2023-08-30T10:14:55;2.23;;;1.03;;
3601;SDS011;1815;50.950;6.920;2023-08-30T10:17:22;2.63;;;1.30;;
3601;SDS011;1815;50.950;6.920;2023-08-30T10:19:56;2.17;;;1.07;;
3601;SDS011;1815;50.950;6.920;2023-08-30T10:22:23;1.93;;;1.03;;
3601;SDS011;1815;50.950;6.920;2023-08-30T10:25:01;2.80;;;1.00;;
3601;SDS011;1815;50.950;6.920;2023-08-30T10:27:30;2.03;;;1.20;;
3601;SDS011;1815;50.950;6.920;2023-08-30T10:29:59;3.43;;;1.40;;
3601;SDS011;1815;50.950;6.920;2023-08-30T10:32:27;2.87;;;1.30;;
3601;SDS011;1815;50.950;6.920;2023-08-30T10:34:53;2.40;;;1.30;;
3601;SDS011;1815;50.950;6.920;2023-08-30T10:37:22;3.10;;;1.47;;
3601;SDS011;1815;50.950;6.920;2023-08-30T10:39:49;2.80;;;1.40;;
3601;SDS011;1815;50.950;6.920;2023-08-30T10:42:15;4.90;;;2.20;;
3601;SDS011;1815;50.950;6.920;2023-08-30T10:44:49;3.30;;;2.20;;
3601;SDS011;1815;50.950;6.920;2023-08-30T10:47:19;2.83;;;1.70;;
3601;SDS011;1815;50.950;6.920;2023-08-30T10:49:54;2.00;;;1.33;;
3601;SDS011;1815;50.950;6.920;2023-08-30T10:52:21;3.13;;;1.70;;
3601;SDS011;1815;50.950;6.920;2023-08-30T10:54:47;5.80;;;2.50;;
3601;SDS011;1815;50.950;6.920;2023-08-30T10:57:19;2.87;;;2.30;;
3601;SDS011;1815;50.950;6.920;2023-08-30T11:02:34;3.43;;;1.20;;
3601;SDS011;1815;50.950;6.920;2023-08-30T11:05:00;11.63;;;6.57;;
3601;SDS011;1815;50.950;6.920;2023-08-30T11:07:28;5.83;;;3.73;;
3601;SDS011;1815;50.950;6.920;2023-08-30T11:09:54;5.43;;;2.80;;
3601;SDS011;1815;50.950;6.920;2023-08-30T11:12:21;2.00;;;1.10;;
3601;SDS011;1815;50.950;6.920;2023-08-30T11:14:47;3.70;;;1.40;;
3601;SDS011;1815;50.950;6.920;2023-08-30T11:17:15;4.23;;;1.77;;
3601;SDS011;1815;50.950;6.920;2023-08-30T11:19:42;3.23;;;1.10;;
3601;SDS011;1815;50.950;6.920;2023-08-30T11:22:08;4.10;;;1.20;;
3601;SDS011;1815;50.950;6.920;2023-08-30T11:24:35;3.30;;;1.73;;
3601;SDS011;1815;50.950;6.920;2023-08-30T11:27:00;3.87;;;2.30;;
3601;SDS011;1815;50.950;6.920;2023-08-30T11:29:27;3.80;;;2.10;;
3601;SDS011;1815;50.950;6.920;2023-08-30T11:31:52;4.80;;;2.90;;
3601;SDS011;1815;50.950;6.920;2023-08-30T11:37:07;7.47;;;4.23;;
3601;SDS011;1815;50.950;6.920;2023-08-30T11:39:33;9.50;;;4.60;;
3601;SDS011;1815;50.950;6.920;2023-08-30T11:41:59;6.10;;;3.83;;
3601;SDS011;1815;50.950;6.920;2023-08-30T11:44:25;3.43;;;2.37;;
3601;SDS011;1815;50.950;6.920;2023-08-30T11:46:57;4.80;;;3.10;;
3601;SDS011;1815;50.950;6.920;2023-08-30T11:49:24;4.40;;;2.20;;
3601;SDS011;1815;50.950;6.920;2023-08-30T11:51:50;3.80;;;2.43;;
3601;SDS011;1815;50.950;6.920;2023-08-30T11:54:18;4.23;;;3.60;;
3601;SDS011;1815;50.950;6.920;2023-08-30T11:56:45;7.43;;;5.30;;
3601;SDS011;1815;50.950;6.920;2023-08-30T11:59:18;7.40;;;5.50;;
3601;SDS011;1815;50.950;6.920;2023-08-30T12:01:48;11.97;;;5.60;;
3601;SDS011;1815;50.950;6.920;2023-08-30T12:04:14;6.73;;;4.93;;
3601;SDS011;1815;50.950;6.920;2023-08-30T12:06:40;7.10;;;5.57;;
3601;SDS011;1815;50.950;6.920;2023-08-30T12:09:11;8.47;;;3.87;;
3601;SDS011;1815;50.950;6.920;2023-08-30T12:11:38;5.00;;;2.63;;
3601;SDS011;1815;50.950;6.920;2023-08-30T12:14:03;4.30;;;2.63;;
3601;SDS011;1815;50.950;6.920;2023-08-30T12:16:30;4.20;;;1.90;;
3601;SDS011;1815;50.950;6.920;2023-08-30T12:18:55;3.20;;;1.80;;
3601;SDS011;1815;50.950;6.920;2023-08-30T12:21:21;4.47;;;1.67;;
3601;SDS011;1815;50.950;6.920;2023-08-30T12:23:47;2.60;;;1.90;;
3601;SDS011;1815;50.950;6.920;2023-08-30T12:26:13;3.30;;;1.40;;
3601;SDS011;1815;50.950;6.920;2023-08-30T12:28:39;3.00;;;1.50;;
3601;SDS011;1815;50.950;6.920;2023-08-30T12:34:53;5.43;;;3.30;;
3601;SDS011;1815;50.950;6.920;2023-08-30T12:37:18;2.00;;;1.50;;
3601;SDS011;1815;50.950;6.920;2023-08-30T12:39:44;1.73;;;1.20;;
3601;SDS011;1815;50.950;6.920;2023-08-30T12:42:11;3.57;;;1.63;;
3601;SDS011;1815;50.950;6.920;2023-08-30T12:44:36;2.17;;;1.10;;
3601;SDS011;1815;50.950;6.920;2023-08-30T12:47:02;2.47;;;1.00;;
3601;SDS011;1815;50.950;6.920;2023-08-30T12:49:29;2.90;;;0.97;;
3601;SDS011;1815;50.950;6.920;2023-08-30T12:51:54;1.50;;;0.80;;
3601;SDS011;1815;50.950;6.920;2023-08-30T12:54:20;2.30;;;1.03;;
3601;SDS011;1815;50.950;6.920;2023-08-30T12:56:46;1.70;;;0.90;;
3601;SDS011;1815;50.950;6.920;2023-08-30T12:59:11;2.00;;;1.00;;
3601;SDS011;1815;50.950;6.920;2023-08-30T13:01:37;2.10;;;1.13;;
3601;SDS011;1815;50.950;6.920;2023-08-30T13:04:03;1.60;;;0.90;;
3601;SDS011;1815;50.950;6.920;2023-08-30T13:06:28;1.40;;;0.80;;
3601;SDS011;1815;50.950;6.920;2023-08-30T13:08:54;1.80;;;0.93;;
3601;SDS011;1815;50.950;6.920;2023-08-30T13:11:20;1.83;;;0.90;;
3601;SDS011;1815;50.950;6.920;2023-08-30T13:13:46;1.50;;;0.87;;
3601;SDS011;1815;50.950;6.920;2023-08-30T13:16:11;1.60;;;0.80;;
3601;SDS011;1815;50.950;6.920;2023-08-30T13:18:37;1.70;;;0.80;;
3601;SDS011;1815;50.950;6.920;2023-08-30T13:21:03;3.00;;;1.60;;
3601;SDS011;1815;50.950;6.920;2023-08-30T13:23:29;1.93;;;1.20;;
3601;SDS011;1815;50.950;6.920;2023-08-30T13:25:55;3.17;;;1.30;;
3601;SDS011;1815;50.950;6.920;2023-08-30T13:28:20;2.00;;;1.23;;
3601;SDS011;1815;50.950;6.920;2023-08-30T13:30:46;3.00;;;1.80;;
3601;SDS011;1815;50.950;6.920;2023-08-30T13:33:12;2.80;;;1.53;;
3601;SDS011;1815;50.950;6.920;2023-08-30T13:35:41;1.87;;;1.17;;
3601;SDS011;1815;50.950;6.920;2023-08-30T13:38:06;2.00;;;1.00;;
3601;SDS011;1815;50.950;6.920;2023-08-30T13:40:32;1.80;;;0.97;;
3601;SDS011;1815;50.950;6.920;2023-08-30T13:42:58;1.80;;;0.80;;
3601;SDS011;1815;50.950;6.920;2023-08-30T13:45:24;1.50;;;0.77;;
3601;SDS011;1815;50.950;6.920;2023-08-30T13:47:49;1.60;;;0.70;;
3601;SDS011;1815;50.950;6.920;2023-08-30T13:50:19;1.63;;;0.80;;
3601;SDS011;1815;50.950;6.920;2023-08-30T13:52:45;1.80;;;0.90;;
3601;SDS011;1815;50.950;6.920;2023-08-30T13:55:10;1.90;;;0.90;;
3601;SDS011;1815;50.950;6.920;2023-08-30T13:57:36;2.63;;;1.27;;
3601;SDS011;1815;50.950;6.920;2023-08-30T14:00:02;2.33;;;1.30;;
3601;SDS011;1815;50.950;6.920;2023-08-30T14:02:33;2.17;;;1.37;;
3601;SDS011;1815;50.950;6.920;2023-08-30T14:04:58;2.23;;;1.40;;
3601;SDS011;1815;50.950;6.920;2023-08-30T14:07:24;2.43;;;1.40;;
3601;SDS011;1815;50.950;6.920;2023-08-30T14:09:50;4.30;;;1.60;;
3601;SDS011;1815;50.950;6.920;2023-08-30T14:12:17;4.07;;;1.00;;
3601;SDS011;1815;50.950;6.920;2023-08-30T14:14:42;1.70;;;1.13;;
3601;SDS011;1815;50.950;6.920;2023-08-30T14:17:08;2.40;;;1.27;;
3601;SDS011;1815;50.950;6.920;2023-08-30T14:19:34;3.00;;;1.03;;
3601;SDS011;1815;50.950;6.920;2023-08-30T14:22:00;1.73;;;0.90;;
3601;SDS011;1815;50.950;6.920;2023-08-30T14:24:29;1.70;;;1.03;;
3601;SDS011;1815;50.950;6.920;2023-08-30T14:26:54;1.77;;;1.17;;
3601;SDS011;1815;50.950;6.920;2023-08-30T14:29:20;4.97;;;2.77;;
3601;SDS011;1815;50.950;6.920;2023-08-30T14:31:49;6.63;;;5.10;;
3601;SDS011;1815;50.950;6.920;2023-08-30T14:34:15;3.40;;;2.80;;
3601;SDS011;1815;50.950;6.920;2023-08-30T14:36:41;4.87;;;2.00;;
3601;SDS011;1815;50.950;6.920;2023-08-30T14:39:08;3.17;;;1.50;;
3601;SDS011;1815;50.950;6.920;2023-08-30T14:41:34;2.80;;;1.70;;
3601;SDS011;1815;50.950;6.920;2023-08-30T14:44:02;4.10;;;3.23;;
3601;SDS011;1815;50.950;6.920;2023-08-30T14:46:32;3.40;;;2.50;;
3601;SDS011;1815;50.950;6.920;2023-08-30T14:48:58;3.87;;;2.10;;
3601;SDS011;1815;50.950;6.920;2023-08-30T14:51:24;2.33;;;1.63;;
3601;SDS011;1815;50.950;6.920;2023-08-30T14:53:49;3.97;;;2.00;;
3601;SDS011;1815;50.950;6.920;2023-08-30T14:56:15;3.90;;;2.23;;
3601;SDS011;1815;50.950;6.920;2023-08-30T14:58:44;4.93;;;3.27;;
3601;SDS011;1815;50.950;6.920;2023-08-30T15:01:14;4.80;;;2.40;;
3601;SDS011;1815;50.950;6.920;2023-08-30T15:03:40;2.40;;;1.80;;
3601;SDS011;1815;50.950;6.920;2023-08-30T15:06:06;3.40;;;1.87;;
3601;SDS011;1815;50.950;6.920;2023-08-30T15:08:32;2.33;;;1.80;;
3601;SDS011;1815;50.950;6.920;2023-08-30T15:10:57;3.70;;;2.37;;
3601;SDS011;1815;50.950;6.920;2023-08-30T15:13:23;8.27;;;5.30;;
3601;SDS011;1815;50.950;6.920;2023-08-30T15:15:49;14.27;;;11.23;;
3601;SDS011;1815;50.950;6.920;2023-08-30T15:18:15;18.40;;;14.60;;
3601;SDS011;1815;50.950;6.920;2023-08-30T15:20:41;10.37;;;8.57;;
3601;SDS011;1815;50.950;6.920;2023-08-30T15:23:06;6.43;;;5.40;;
3601;SDS011;1815;50.950;6.920;2023-08-30T15:25:41;7.17;;;4.70;;
3601;SDS011;1815;50.950;6.920;2023-08-30T15:28:08;5.70;;;5.10;;
3601;SDS011;1815;50.950;6.920;2023-08-30T15:30:34;7.67;;;5.60;;
3601;SDS011;1815;50.950;6.920;2023-08-30T15:32:59;6.40;;;5.10;;
3601;SDS011;1815;50.950;6.920;2023-08-30T15:35:26;7.43;;;5.37;;
3601;SDS011;1815;50.950;6.920;2023-08-30T15:37:51;4.83;;;4.37;;
3601;SDS011;1815;50.950;6.920;2023-08-30T15:40:17;4.57;;;3.37;;
3601;SDS011;1815;50.950;6.920;2023-08-30T15:42:43;2.90;;;2.40;;
3601;SDS011;1815;50.950;6.920;2023-08-30T15:45:08;3.00;;;2.50;;
3601;SDS011;1815;50.950;6.920;2023-08-30T15:47:35;3.90;;;2.17;;
3601;SDS011;1815;50.950;6.920;2023-08-30T15:50:01;3.13;;;1.77;;
3601;SDS011;1815;50.950;6.920;2023-08-30T15:52:27;2.00;;;1.70;;
3601;SDS011;1815;50.950;6.920;2023-08-30T15:54:53;1.93;;;1.70;;
3601;SDS011;1815;50.950;6.920;2023-08-30T15:57:19;3.53;;;1.93;;
3601;SDS011;1815;50.950;6.920;2023-08-30T15:59:45;2.80;;;2.23;;
3601;SDS011;1815;50.950;6.920;2023-08-30T16:02:11;3.30;;;1.90;;
3601;SDS011;1815;50.950;6.920;2023-08-30T16:04:37;2.50;;;1.90;;
3601;SDS011;1815;50.950;6.920;2023-08-30T16:07:02;3.00;;;2.53;;
3601;SDS011;1815;50.950;6.920;2023-08-30T16:09:28;3.60;;;2.43;;
3601;SDS011;1815;50.950;6.920;2023-08-30T16:11:54;3.77;;;3.03;;
3601;SDS011;1815;50.950;6.920;2023-08-30T16:14:20;4.47;;;3.17;;
3601;SDS011;1815;50.950;6.920;2023-08-30T16:16:45;3.60;;;2.60;;
3601;SDS011;1815;50.950;6.920;2023-08-30T16:19:11;3.23;;;2.60;;
3601;SDS011;1815;50.950;6.920;2023-08-30T16:21:37;2.73;;;2.20;;
3601;SDS011;1815;50.950;6.920;2023-08-30T16:24:03;3.10;;;1.90;;
3601;SDS011;1815;50.950;6.920;2023-08-30T16:26:29;3.43;;;2.30;;
3601;SDS011;1815;50.950;6.920;2023-08-30T16:28:55;4.70;;;2.93;;
3601;SDS011;1815;50.950;6.920;2023-08-30T16:31:21;4.23;;;2.90;;
3601;SDS011;1815;50.950;6.920;2023-08-30T16:33:53;3.37;;;2.87;;
3601;SDS011;1815;50.950;6.920;2023-08-30T16:36:19;4.20;;;2.60;;
3601;SDS011;1815;50.950;6.920;2023-08-30T16:38:45;3.23;;;2.40;;
3601;SDS011;1815;50.950;6.920;2023-08-30T16:41:10;3.33;;;2.17;;
3601;SDS011;1815;50.950;6.920;2023-08-30T16:43:36;4.87;;;2.60;;
3601;SDS011;1815;50.950;6.920;2023-08-30T16:49:05;3.30;;;2.17;;
3601;SDS011;1815;50.950;6.920;2023-08-30T16:51:31;5.03;;;2.97;;
3601;SDS011;1815;50.950;6.920;2023-08-30T16:53:57;5.33;;;3.23;;
3601;SDS011;1815;50.950;6.920;2023-08-30T16:56:23;4.53;;;2.70;;
3601;SDS011;1815;50.950;6.920;2023-08-30T16:58:49;3.90;;;2.50;;
3601;SDS011;1815;50.950;6.920;2023-08-30T17:01:14;4.67;;;2.83;;
3601;SDS011;1815;50.950;6.920;2023-08-30T17:03:41;3.53;;;2.67;;
3601;SDS011;1815;50.950;6.920;2023-08-30T17:06:07;3.47;;;2.43;;
3601;SDS011;1815;50.950;6.920;2023-08-30T17:08:32;3.70;;;2.67;;
3601;SDS011;1815;50.950;6.920;2023-08-30T17:11:07;4.50;;;2.80;;
3601;SDS011;1815;50.950;6.920;2023-08-30T17:13:34;5.70;;;2.70;;